Aeroporto :
LOGIN :

Iscrizione | Disclaimer

   EN    FR    IT 

 










Sommario :    VFR   VFR Marginale   IFR   IFR Intensivo   IFR Molto Intensivo
Visibilità : 
Base nubi : 
>= 8 km
>= 3000ft
5 / 8 km
1000 / 3000 ft
1500m / 5 km
500 / 1000 ft
800 / 1500m
200 / 500 ft
< 800m
< 200 ft
Simboli :   Temporali  Nebbia  Neve Forte  Precipitazioni Forti  Vento > 20 kt
SIGMETs :   Varie  Temporali  Ghiacco  Turbolenza  Onda orograficha  Ceneri Vulcaniche






- Altitudine del aeroporto : 274 ft
- Codice IATA : PUY


LDPL - Pula

ULTIMO METAR :
  • 040200Z 05005KT 9999 BKN020 BKN030 06/03 Q1004

METARs OBSOLETI :
  • 040130Z 03004KT 9999 BKN020 BKN030 06/03 Q1004
  • 040100Z 03005KT 9999 BKN020 BKN030 06/03 Q1004
  • 040030Z 04004KT 9999 BKN020 OVC030 06/04 Q1005
  • 040000Z VRB02KT 9999 BKN020 OVC030 06/04 Q1005
  • 032330Z 04003KT 9999 OVC030 06/04 Q1005

TAF TAF LDPL
Valido dal 04 a 00 ore il 05 a 00 ore UTC


032325Z 0400/0500 32006KT 9999 SCT020 TX15/0423Z TN04/0404Z
BECMG 0411/0413 13010KT
BECMG 0420/0422 13020KT
PROB30
TEMPO 0421/0500 13020G30KT



MetMap, La meteo Aeronautica in un colpo d'occhio ! - Copyright ORBIFLY Dicembre 2007 - Disclaimer

ORBIFLY MET'MAP TEAM :

Programmazione e sviluppo : Alexandra Zaïnal
Concezione : Baudouin d'Aumeries
Aiuto per la programmazione : Marc-Olivier Méhu
Supporto tecnico e logistico : Manuel Goepfert
Aiuto per la traduzione : Arnaldo La Scala

Contatto : metmap@orbifly.com




FONTI E CREDITI :

   NOAA